Time;durP1;ratioP1;P1;durP2;ratioP2;P2;SDS_P1;SDS_P2;PMS_P1;PMS_P2;Temp;Humidity;BMP_temperature;BMP_pressure;BME280_temperature;BME280_humidity;BME280_pressure;Samples;Min_cycle;Max_cycle;Signal;HPM_P1;HPM_P2
2021/10/08 00:01:54;;;;;;;943.50;770.25;;;;;;;;;;5003371;28;20028;-77
2021/10/08 00:04:22;;;;;;;941.53;765.13;;;;;;;;;;5004774;28;20478;-78
2021/10/08 00:06:48;;;;;;;946.05;778.65;;;;;;;;;;5002707;28;20486;-78
2021/10/08 00:09:14;;;;;;;947.05;769.60;;;;;;;;;;5002053;28;20038;-77
2021/10/08 00:11:40;;;;;;;948.22;767.00;;;;;;;;;;5004107;28;20088;-77
2021/10/08 00:14:06;;;;;;;940.47;753.17;;;;;;;;;;5003844;28;20025;-77
2021/10/08 00:16:32;;;;;;;944.70;764.33;;;;;;;;;;5002622;28;20064;-78
2021/10/08 00:18:58;;;;;;;932.38;734.00;;;;;;;;;;5003598;28;20018;-78
2021/10/08 00:21:24;;;;;;;934.90;738.53;;;;;;;;;;5004217;28;20530;-77
2021/10/08 00:23:50;;;;;;;937.05;732.70;;;;;;;;;;5001962;28;20065;-77
2021/10/08 00:26:16;;;;;;;943.13;758.10;;;;;;;;;;5001799;28;20030;-77
2021/10/08 00:28:42;;;;;;;935.47;733.95;;;;;;;;;;5000074;28;20026;-77
2021/10/08 00:31:08;;;;;;;938.00;746.40;;;;;;;;;;5003406;28;20036;-77
2021/10/08 00:33:34;;;;;;;937.20;733.50;;;;;;;;;;5003111;28;20502;-77
2021/10/08 00:36:00;;;;;;;930.92;724.03;;;;;;;;;;5001656;28;20021;-77
2021/10/08 00:38:27;;;;;;;933.53;729.97;;;;;;;;;;5003562;28;20022;-78
2021/10/08 00:40:53;;;;;;;939.75;741.50;;;;;;;;;;5004086;28;20030;-78
2021/10/08 00:43:20;;;;;;;943.03;752.35;;;;;;;;;;5005413;28;20044;-77
2021/10/08 00:45:46;;;;;;;936.00;732.85;;;;;;;;;;5003736;28;20030;-78
2021/10/08 00:48:12;;;;;;;939.15;740.22;;;;;;;;;;5003471;28;20473;-78
2021/10/08 00:50:39;;;;;;;929.30;706.45;;;;;;;;;;5034171;28;20386;-78
2021/10/08 00:53:05;;;;;;;934.92;729.08;;;;;;;;;;5005428;28;20064;-77
2021/10/08 00:55:32;;;;;;;939.58;744.17;;;;;;;;;;5002046;28;20025;-78
2021/10/08 00:57:59;;;;;;;938.10;738.55;;;;;;;;;;4999947;28;20032;-78
2021/10/08 01:00:27;;;;;;;939.50;734.15;;;;;;;;;;5002567;28;20545;-77
2021/10/08 01:02:53;;;;;;;938.20;742.67;;;;;;;;;;5006404;28;20088;-77
2021/10/08 01:05:19;;;;;;;937.65;731.20;;;;;;;;;;5004113;28;20050;-77
2021/10/08 01:07:45;;;;;;;937.63;734.95;;;;;;;;;;5004662;28;20104;-77
2021/10/08 01:10:11;;;;;;;930.00;714.75;;;;;;;;;;5004508;28;20494;-78
2021/10/08 01:12:39;;;;;;;938.40;734.92;;;;;;;;;;5004901;28;20470;-75
2021/10/08 01:15:06;;;;;;;929.03;708.97;;;;;;;;;;5011861;28;20026;-75
2021/10/08 01:17:33;;;;;;;938.60;734.05;;;;;;;;;;5003879;28;20018;-75
2021/10/08 01:20:01;;;;;;;934.78;727.50;;;;;;;;;;5003719;28;20100;-76
2021/10/08 01:22:27;;;;;;;934.67;722.83;;;;;;;;;;5002159;28;20041;-76
2021/10/08 01:24:53;;;;;;;932.63;722.92;;;;;;;;;;4998618;28;20030;-76
2021/10/08 01:27:22;;;;;;;930.00;718.85;;;;;;;;;;5002813;28;20520;-75
2021/10/08 01:29:49;;;;;;;927.08;701.25;;;;;;;;;;5002259;28;20029;-76
2021/10/08 01:32:15;;;;;;;932.28;708.45;;;;;;;;;;5001689;28;20073;-77
2021/10/08 01:34:41;;;;;;;927.50;696.58;;;;;;;;;;4999131;28;20061;-77
2021/10/08 01:37:07;;;;;;;927.47;700.10;;;;;;;;;;5002765;28;20448;-76
2021/10/08 01:39:33;;;;;;;932.08;719.00;;;;;;;;;;5000929;28;20310;-77
2021/10/08 01:41:59;;;;;;;937.53;725.67;;;;;;;;;;4998726;28;20024;-77
2021/10/08 01:44:25;;;;;;;935.33;717.72;;;;;;;;;;5002300;28;20033;-77
2021/10/08 01:46:52;;;;;;;937.20;722.33;;;;;;;;;;5002857;28;20108;-77
2021/10/08 01:49:18;;;;;;;927.90;703.88;;;;;;;;;;5004083;28;20350;-77
2021/10/08 01:51:44;;;;;;;929.55;701.05;;;;;;;;;;5003412;28;20445;-77
2021/10/08 01:54:11;;;;;;;924.63;695.40;;;;;;;;;;4999676;28;20026;-77
2021/10/08 01:56:44;;;;;;;925.08;694.15;;;;;;;;;;5001103;28;20105;-76
2021/10/08 01:59:10;;;;;;;932.58;710.22;;;;;;;;;;5003956;28;20444;-77
2021/10/08 02:01:36;;;;;;;934.65;724.35;;;;;;;;;;5002469;28;20080;-78
2021/10/08 02:04:02;;;;;;;927.08;699.22;;;;;;;;;;4999944;28;20137;-78
2021/10/08 02:06:28;;;;;;;926.22;693.08;;;;;;;;;;5004507;28;20037;-77
2021/10/08 02:08:54;;;;;;;925.75;692.40;;;;;;;;;;5004205;28;20487;-78
2021/10/08 02:11:20;;;;;;;920.28;677.15;;;;;;;;;;5003013;28;20029;-78
2021/10/08 02:13:46;;;;;;;924.45;692.58;;;;;;;;;;5000361;28;20582;-78
2021/10/08 02:16:12;;;;;;;940.45;737.80;;;;;;;;;;5004247;28;20397;-78
2021/10/08 02:18:38;;;;;;;933.72;716.72;;;;;;;;;;5017138;28;20030;-78
2021/10/08 02:21:04;;;;;;;932.28;718.38;;;;;;;;;;4998219;28;20058;-78
2021/10/08 02:23:30;;;;;;;938.28;724.47;;;;;;;;;;5002125;28;20075;-78
2021/10/08 02:25:57;;;;;;;933.65;712.60;;;;;;;;;;4998082;28;20086;-78
2021/10/08 02:28:23;;;;;;;929.40;710.60;;;;;;;;;;5001901;28;20411;-78
2021/10/08 02:30:49;;;;;;;936.10;723.00;;;;;;;;;;4999465;28;20034;-78
2021/10/08 02:33:15;;;;;;;935.83;718.53;;;;;;;;;;4999565;28;20253;-79
2021/10/08 02:35:41;;;;;;;932.35;712.42;;;;;;;;;;5002931;28;20026;-78
2021/10/08 02:38:07;;;;;;;936.75;722.88;;;;;;;;;;5002010;28;20220;-78
2021/10/08 02:40:33;;;;;;;928.92;709.65;;;;;;;;;;4999868;28;20090;-79
2021/10/08 02:42:59;;;;;;;931.15;711.65;;;;;;;;;;4998285;28;20088;-78
2021/10/08 02:45:25;;;;;;;930.65;713.80;;;;;;;;;;4999120;28;20030;-78
2021/10/08 02:47:51;;;;;;;933.65;722.03;;;;;;;;;;4997282;28;20084;-78
2021/10/08 02:50:17;;;;;;;935.10;725.17;;;;;;;;;;5004574;28;20036;-78
2021/10/08 02:52:43;;;;;;;931.25;713.53;;;;;;;;;;5004660;28;20403;-78
2021/10/08 02:55:10;;;;;;;925.55;694.42;;;;;;;;;;5014810;28;20033;-78
2021/10/08 02:57:39;;;;;;;930.08;705.38;;;;;;;;;;4999254;28;20437;-78
2021/10/08 03:00:09;;;;;;;928.93;706.70;;;;;;;;;;4997002;28;20062;-78
2021/10/08 03:02:35;;;;;;;925.67;695.42;;;;;;;;;;5031929;28;20061;-78
2021/10/08 03:05:01;;;;;;;931.28;707.15;;;;;;;;;;5014941;28;20330;-79
2021/10/08 03:07:28;;;;;;;923.88;681.40;;;;;;;;;;5001695;28;20030;-79
2021/10/08 03:09:54;;;;;;;924.97;684.72;;;;;;;;;;5000515;28;20321;-79
2021/10/08 03:12:20;;;;;;;924.58;681.88;;;;;;;;;;5001883;28;20422;-79
2021/10/08 03:14:47;;;;;;;920.63;672.15;;;;;;;;;;4998929;28;20032;-79
2021/10/08 03:17:13;;;;;;;917.85;655.90;;;;;;;;;;5003273;28;20048;-79
2021/10/08 03:19:39;;;;;;;926.75;683.22;;;;;;;;;;4998439;28;20679;-79
2021/10/08 03:22:05;;;;;;;921.80;667.45;;;;;;;;;;5003824;28;20029;-79
2021/10/08 03:24:32;;;;;;;923.85;660.70;;;;;;;;;;4999624;28;20023;-79
2021/10/08 03:26:58;;;;;;;923.42;668.95;;;;;;;;;;5003250;28;20026;-79
2021/10/08 03:29:24;;;;;;;922.78;667.05;;;;;;;;;;5003828;28;20030;-79
2021/10/08 03:31:50;;;;;;;914.67;642.63;;;;;;;;;;5003665;28;20025;-79
2021/10/08 03:34:16;;;;;;;928.38;677.63;;;;;;;;;;5002966;28;20029;-79
2021/10/08 03:36:46;;;;;;;919.80;655.17;;;;;;;;;;5003661;28;20027;-79
2021/10/08 03:39:16;;;;;;;915.33;643.83;;;;;;;;;;5002401;28;20411;-79
2021/10/08 03:41:43;;;;;;;924.03;672.45;;;;;;;;;;5035537;28;20034;-79
2021/10/08 03:44:10;;;;;;;912.75;636.65;;;;;;;;;;5005678;28;20022;-79
2021/10/08 03:46:44;;;;;;;918.63;649.88;;;;;;;;;;5003945;28;20072;-79
2021/10/08 03:51:36;;;;;;;926.13;673.72;;;;;;;;;;5002331;28;20105;-79
2021/10/08 03:54:04;;;;;;;917.58;655.60;;;;;;;;;;4995015;28;20033;-79
2021/10/08 03:56:30;;;;;;;920.63;655.70;;;;;;;;;;5035307;28;20030;-79
2021/10/08 03:58:57;;;;;;;924.30;664.30;;;;;;;;;;5001468;28;20030;-79
2021/10/08 04:01:23;;;;;;;920.60;651.10;;;;;;;;;;5016299;28;20050;-79
2021/10/08 04:03:50;;;;;;;921.38;655.47;;;;;;;;;;5001577;28;20057;-79
2021/10/08 04:06:16;;;;;;;914.22;632.47;;;;;;;;;;5003663;28;20033;-79
2021/10/08 04:08:42;;;;;;;921.08;660.42;;;;;;;;;;5003736;28;20034;-79
2021/10/08 04:11:09;;;;;;;923.72;658.28;;;;;;;;;;5002693;28;20032;-79
2021/10/08 04:13:35;;;;;;;915.72;631.90;;;;;;;;;;5002376;28;20036;-79
2021/10/08 04:16:01;;;;;;;919.28;647.42;;;;;;;;;;4998780;28;20037;-79
2021/10/08 04:18:27;;;;;;;914.00;620.28;;;;;;;;;;4998244;28;20250;-79
2021/10/08 04:20:53;;;;;;;913.80;622.05;;;;;;;;;;4999081;28;20474;-79
2021/10/08 04:23:19;;;;;;;912.22;617.72;;;;;;;;;;5003372;28;20026;-79
2021/10/08 04:25:45;;;;;;;908.40;595.50;;;;;;;;;;4998533;28;20027;-79
2021/10/08 04:28:11;;;;;;;909.25;608.78;;;;;;;;;;5000616;28;20087;-79
2021/10/08 04:30:37;;;;;;;912.70;625.65;;;;;;;;;;5001046;28;20030;-79
2021/10/08 04:33:13;;;;;;;900.05;579.47;;;;;;;;;;5001521;28;20437;-78
2021/10/08 04:35:39;;;;;;;894.95;567.10;;;;;;;;;;5030894;28;20026;-78
2021/10/08 04:38:05;;;;;;;909.38;603.50;;;;;;;;;;4999566;28;20424;-78
2021/10/08 04:40:31;;;;;;;904.75;590.70;;;;;;;;;;5003741;28;20061;-79
2021/10/08 04:42:57;;;;;;;895.55;566.75;;;;;;;;;;5002405;28;20033;-79
2021/10/08 04:45:23;;;;;;;901.65;583.85;;;;;;;;;;4999270;28;20041;-79
2021/10/08 04:47:49;;;;;;;898.53;575.53;;;;;;;;;;5001279;28;20040;-79
2021/10/08 04:50:17;;;;;;;894.30;565.08;;;;;;;;;;5001616;28;20108;-79
2021/10/08 04:52:43;;;;;;;899.03;580.78;;;;;;;;;;5006443;28;20041;-78
2021/10/08 04:55:09;;;;;;;899.08;585.00;;;;;;;;;;5012140;28;20379;-79
2021/10/08 04:57:35;;;;;;;904.10;595.72;;;;;;;;;;5006373;28;20034;-79
2021/10/08 05:00:01;;;;;;;908.65;613.20;;;;;;;;;;5003428;28;20546;-79
2021/10/08 05:02:27;;;;;;;911.83;621.67;;;;;;;;;;5003542;28;20034;-78
2021/10/08 05:04:53;;;;;;;909.38;615.40;;;;;;;;;;5017430;28;20046;-79
2021/10/08 05:07:19;;;;;;;908.47;608.53;;;;;;;;;;5006457;28;20141;-79
2021/10/08 05:09:45;;;;;;;917.40;633.47;;;;;;;;;;5005275;28;20478;-78
2021/10/08 05:12:11;;;;;;;916.60;635.05;;;;;;;;;;5006396;28;20022;-78
2021/10/08 05:14:37;;;;;;;911.33;613.38;;;;;;;;;;5000442;28;20041;-78
2021/10/08 05:17:03;;;;;;;915.78;626.75;;;;;;;;;;5035549;28;20033;-79
2021/10/08 05:19:29;;;;;;;910.67;613.40;;;;;;;;;;5003077;28;20111;-79
2021/10/08 05:21:55;;;;;;;909.97;610.45;;;;;;;;;;5001796;28;20033;-79
2021/10/08 05:24:22;;;;;;;894.63;556.17;;;;;;;;;;5004913;28;20502;-79
2021/10/08 05:26:48;;;;;;;906.13;593.35;;;;;;;;;;5035552;28;20496;-79
2021/10/08 05:29:16;;;;;;;910.90;613.47;;;;;;;;;;5010583;28;20485;-78
2021/10/08 05:31:42;;;;;;;907.15;599.92;;;;;;;;;;5002658;28;20127;-78
2021/10/08 05:34:08;;;;;;;905.90;599.92;;;;;;;;;;5005392;28;20048;-78
2021/10/08 05:36:34;;;;;;;908.05;604.47;;;;;;;;;;5003779;28;20022;-78
2021/10/08 05:39:01;;;;;;;910.42;605.83;;;;;;;;;;5002954;28;20521;-78
2021/10/08 05:41:30;;;;;;;907.47;593.67;;;;;;;;;;5007847;28;20100;-78
2021/10/08 05:43:56;;;;;;;906.63;592.65;;;;;;;;;;5009515;28;20067;-79
2021/10/08 05:46:22;;;;;;;910.97;609.67;;;;;;;;;;5017278;28;20049;-78
2021/10/08 05:48:48;;;;;;;912.13;618.42;;;;;;;;;;4998135;28;20397;-78
2021/10/08 05:51:15;;;;;;;908.40;597.95;;;;;;;;;;5007203;28;20034;-78
2021/10/08 05:53:41;;;;;;;911.03;610.08;;;;;;;;;;5004521;28;20034;-78
2021/10/08 05:56:07;;;;;;;904.38;584.97;;;;;;;;;;5000607;28;20030;-79
2021/10/08 05:58:33;;;;;;;911.55;605.63;;;;;;;;;;5002962;28;20049;-79
2021/10/08 06:00:59;;;;;;;909.08;607.88;;;;;;;;;;5007581;28;20025;-78
2021/10/08 06:03:25;;;;;;;908.53;601.03;;;;;;;;;;5006160;28;20026;-78
2021/10/08 06:05:51;;;;;;;897.60;552.53;;;;;;;;;;5004371;28;20081;-78
2021/10/08 06:08:17;;;;;;;902.60;573.45;;;;;;;;;;5002917;28;20390;-79
2021/10/08 06:10:43;;;;;;;895.10;553.92;;;;;;;;;;5001333;28;20056;-79
2021/10/08 06:13:09;;;;;;;901.97;587.38;;;;;;;;;;5003674;28;20041;-78
2021/10/08 06:15:35;;;;;;;908.47;600.28;;;;;;;;;;4997473;28;20080;-78
2021/10/08 06:18:01;;;;;;;904.65;588.10;;;;;;;;;;5005426;28;20092;-78
2021/10/08 06:20:28;;;;;;;903.95;593.25;;;;;;;;;;5004357;28;20026;-78
2021/10/08 06:22:54;;;;;;;911.08;615.95;;;;;;;;;;5004841;28;20026;-78
2021/10/08 06:25:20;;;;;;;915.28;617.15;;;;;;;;;;5006710;28;20026;-79
2021/10/08 06:27:51;;;;;;;910.30;613.58;;;;;;;;;;5031353;28;20073;-78
2021/10/08 06:30:17;;;;;;;;;;;;;;;;;;5005154;28;20491;-78
2021/10/08 06:32:43;;;;;;;902.78;581.95;;;;;;;;;;5009296;28;20000;-78
2021/10/08 06:35:09;;;;;;;900.08;580.60;;;;;;;;;;5010521;28;20045;-78
2021/10/08 06:37:35;;;;;;;907.45;596.58;;;;;;;;;;5008023;28;20022;-78
2021/10/08 06:40:01;;;;;;;910.45;609.40;;;;;;;;;;5012401;28;20017;-78
2021/10/08 06:42:27;;;;;;;908.80;608.78;;;;;;;;;;5037345;28;20052;-78
2021/10/08 06:44:54;;;;;;;902.10;588.65;;;;;;;;;;5007926;28;20057;-79
2021/10/08 06:47:20;;;;;;;909.42;610.67;;;;;;;;;;5008084;28;20429;-78
2021/10/08 06:49:46;;;;;;;905.97;595.47;;;;;;;;;;5007317;28;20110;-78
2021/10/08 06:52:12;;;;;;;916.00;635.47;;;;;;;;;;5016796;28;20025;-78
2021/10/08 06:54:38;;;;;;;908.15;613.85;;;;;;;;;;5009748;28;20556;-78
2021/10/08 06:57:04;;;;;;;912.90;635.00;;;;;;;;;;5011867;28;20026;-78
2021/10/08 06:59:30;;;;;;;900.55;590.75;;;;;;;;;;5012669;28;20029;-78
2021/10/08 07:01:56;;;;;;;911.42;625.17;;;;;;;;;;5009821;28;20076;-78
2021/10/08 07:04:23;;;;;;;913.60;630.17;;;;;;;;;;5009619;28;20553;-78
2021/10/08 07:06:49;;;;;;;919.42;653.50;;;;;;;;;;5014807;28;20474;-79
2021/10/08 07:09:15;;;;;;;907.42;621.42;;;;;;;;;;5009906;28;20072;-79
2021/10/08 07:11:41;;;;;;;919.03;647.67;;;;;;;;;;5009051;28;20524;-78
2021/10/08 07:14:07;;;;;;;917.22;651.60;;;;;;;;;;5009325;28;20496;-78
2021/10/08 07:16:33;;;;;;;918.20;660.33;;;;;;;;;;5010812;28;20358;-79
2021/10/08 07:19:07;;;;;;;920.72;675.97;;;;;;;;;;5013799;28;20113;-78
2021/10/08 07:21:34;;;;;;;922.97;690.08;;;;;;;;;;5022425;28;20022;-79
2021/10/08 07:24:00;;;;;;;931.33;708.58;;;;;;;;;;5002896;28;20033;-79
2021/10/08 07:26:26;;;;;;;937.72;734.75;;;;;;;;;;5004196;28;20029;-79
2021/10/08 07:28:52;;;;;;;940.80;743.70;;;;;;;;;;5015018;28;20030;-79
2021/10/08 07:31:18;;;;;;;932.65;726.55;;;;;;;;;;5009991;28;20037;-79
2021/10/08 07:33:44;;;;;;;941.40;752.30;;;;;;;;;;5004877;28;20046;-79
2021/10/08 07:36:11;;;;;;;943.25;757.08;;;;;;;;;;5004118;28;22071;-79
2021/10/08 07:38:38;;;;;;;932.33;731.05;;;;;;;;;;5009560;28;20540;-77
2021/10/08 07:41:05;;;;;;;943.45;750.03;;;;;;;;;;5018658;28;20100;-78
2021/10/08 07:43:31;;;;;;;941.30;750.83;;;;;;;;;;5011171;28;20026;-79
2021/10/08 07:45:57;;;;;;;945.53;773.30;;;;;;;;;;5003804;28;20038;-79
2021/10/08 07:48:23;;;;;;;941.15;768.00;;;;;;;;;;5006524;28;20022;-79
2021/10/08 07:50:49;;;;;;;944.58;776.90;;;;;;;;;;5005636;28;20064;-79
2021/10/08 07:53:15;;;;;;;941.65;782.08;;;;;;;;;;5016564;28;20057;-79
2021/10/08 07:55:41;;;;;;;939.95;781.00;;;;;;;;;;5029579;28;20018;-79
2021/10/08 07:58:08;;;;;;;943.72;783.67;;;;;;;;;;5013032;28;20025;-79
2021/10/08 08:00:34;;;;;;;941.70;779.88;;;;;;;;;;5016597;28;20720;-79
2021/10/08 08:03:00;;;;;;;939.88;773.03;;;;;;;;;;5013658;28;20056;-79
2021/10/08 08:05:26;;;;;;;940.85;777.15;;;;;;;;;;5012271;28;20471;-79
2021/10/08 08:07:55;;;;;;;942.63;785.60;;;;;;;;;;5010098;28;20048;-79
2021/10/08 08:10:23;;;;;;;942.83;776.72;;;;;;;;;;5006692;28;20029;-79
2021/10/08 08:12:49;;;;;;;946.63;787.47;;;;;;;;;;5012960;28;20036;-79
2021/10/08 08:15:15;;;;;;;942.10;785.47;;;;;;;;;;5014441;28;20030;-78
2021/10/08 08:17:42;;;;;;;950.20;797.53;;;;;;;;;;5012933;28;20071;-78
2021/10/08 08:20:11;;;;;;;949.72;796.40;;;;;;;;;;5013893;28;20029;-78
2021/10/08 08:22:37;;;;;;;951.83;807.10;;;;;;;;;;5014525;28;20026;-78
2021/10/08 08:25:04;;;;;;;948.00;798.10;;;;;;;;;;5011559;28;20033;-78
2021/10/08 08:27:30;;;;;;;955.25;816.22;;;;;;;;;;5013884;28;20025;-79
2021/10/08 08:29:56;;;;;;;959.45;832.15;;;;;;;;;;5012900;28;20030;-78
2021/10/08 08:32:22;;;;;;;968.47;853.38;;;;;;;;;;5013397;28;20033;-78
2021/10/08 08:34:48;;;;;;;989.75;881.22;;;;;;;;;;5010614;28;20148;-78
2021/10/08 08:37:14;;;;;;;987.25;879.13;;;;;;;;;;5007134;28;20042;-78
2021/10/08 08:39:41;;;;;;;992.95;884.88;;;;;;;;;;5011730;28;20022;-77
2021/10/08 08:42:08;;;;;;;1018.58;909.30;;;;;;;;;;5012578;28;20129;-77
2021/10/08 08:44:35;;;;;;;1048.68;938.33;;;;;;;;;;5011612;28;20073;-77
2021/10/08 08:47:01;;;;;;;1027.68;918.47;;;;;;;;;;5011830;28;20018;-77
2021/10/08 08:49:27;;;;;;;1044.38;934.33;;;;;;;;;;5013095;28;20612;-77
2021/10/08 08:51:56;;;;;;;1060.60;949.90;;;;;;;;;;5018034;28;20060;-77
2021/10/08 08:54:23;;;;;;;1092.95;981.00;;;;;;;;;;5007768;28;20018;-76
2021/10/08 08:56:49;;;;;;;1078.68;967.53;;;;;;;;;;5016964;28;20021;-76
2021/10/08 08:59:15;;;;;;;1069.82;959.47;;;;;;;;;;5013846;28;20028;-77
2021/10/08 09:02:00;;;;;;;1070.70;959.78;;;;;;;;;;5010784;28;20083;-76
2021/10/08 09:04:28;;;;;;;1041.97;933.05;;;;;;;;;;5007752;28;20057;-76
2021/10/08 09:06:55;;;;;;;1074.18;963.08;;;;;;;;;;5005743;28;20109;-76
2021/10/08 09:09:22;;;;;;;1093.15;981.22;;;;;;;;;;5008006;28;20033;-76
2021/10/08 09:11:49;;;;;;;1086.63;974.90;;;;;;;;;;5005245;28;20120;-77
2021/10/08 09:14:15;;;;;;;1092.13;979.92;;;;;;;;;;5005544;28;20030;-77
2021/10/08 09:17:01;;;;;;;1078.47;968.05;;;;;;;;;;5005482;28;20222;-77
2021/10/08 09:19:44;;;;;;;1083.57;972.33;;;;;;;;;;5005225;28;20026;-76
2021/10/08 09:22:10;;;;;;;1059.13;948.47;;;;;;;;;;4997953;28;20660;-77
2021/10/08 09:24:36;;;;;;;1079.20;968.10;;;;;;;;;;5001406;28;20022;-78
2021/10/08 09:27:12;;;;;;;1053.97;944.33;;;;;;;;;;5006697;28;20113;-77
2021/10/08 09:29:46;;;;;;;991.72;885.55;;;;;;;;;;5003545;28;20069;-76
2021/10/08 09:32:12;;;;;;;1031.45;923.20;;;;;;;;;;5004980;28;20243;-75
2021/10/08 09:34:41;;;;;;;1036.60;927.85;;;;;;;;;;5004911;28;20532;-76
2021/10/08 09:37:12;;;;;;;1015.88;907.13;;;;;;;;;;5002690;28;20466;-76
2021/10/08 09:39:39;;;;;;;1036.80;928.20;;;;;;;;;;5006801;28;20017;-76
2021/10/08 09:42:11;;;;;;;1041.95;932.78;;;;;;;;;;5003409;28;20084;-77
2021/10/08 09:44:38;;;;;;;1004.03;896.85;;;;;;;;;;5004925;28;20037;-78
2021/10/08 09:47:15;;;;;;;1005.20;898.53;;;;;;;;;;5003337;28;20026;-77
2021/10/08 09:49:42;;;;;;;1020.00;912.40;;;;;;;;;;5003263;28;20056;-78
2021/10/08 09:52:28;;;;;;;1026.30;918.28;;;;;;;;;;5003634;28;20038;-77
2021/10/08 09:54:58;;;;;;;1016.22;908.25;;;;;;;;;;5010178;28;20030;-78
2021/10/08 09:57:24;;;;;;;1059.53;949.75;;;;;;;;;;5006458;28;20025;-77
2021/10/08 09:59:53;;;;;;;1039.60;930.65;;;;;;;;;;5013359;28;20216;-78
2021/10/08 10:02:21;;;;;;;1050.55;941.15;;;;;;;;;;5006562;28;20093;-79
2021/10/08 10:04:49;;;;;;;1071.15;960.08;;;;;;;;;;5003735;28;20581;-78
2021/10/08 10:07:16;;;;;;;1063.75;953.42;;;;;;;;;;5006507;28;20285;-78
2021/10/08 10:09:42;;;;;;;1073.88;963.00;;;;;;;;;;5004904;28;20318;-77
2021/10/08 10:12:08;;;;;;;1049.00;939.88;;;;;;;;;;5004472;28;20394;-76
2021/10/08 10:14:35;;;;;;;1081.00;970.15;;;;;;;;;;5035402;28;20038;-77
2021/10/08 10:17:02;;;;;;;1076.65;966.03;;;;;;;;;;5007153;28;20105;-77
2021/10/08 10:19:29;;;;;;;1067.63;957.40;;;;;;;;;;5006171;28;20029;-78
2021/10/08 10:21:56;;;;;;;1073.75;963.22;;;;;;;;;;5004545;28;20116;-79
2021/10/08 10:24:23;;;;;;;1074.97;964.58;;;;;;;;;;5003022;28;20040;-77
2021/10/08 10:26:49;;;;;;;1078.22;967.78;;;;;;;;;;5003954;28;20045;-78
2021/10/08 10:29:17;;;;;;;1086.38;975.38;;;;;;;;;;5005063;28;20425;-79
2021/10/08 10:31:44;;;;;;;1079.70;969.20;;;;;;;;;;4999109;28;20096;-78
2021/10/08 10:34:10;;;;;;;1081.55;970.72;;;;;;;;;;5005431;28;20030;-78
2021/10/08 10:36:40;;;;;;;1083.00;972.35;;;;;;;;;;5004705;28;20077;-79
2021/10/08 10:39:15;;;;;;;1091.05;980.45;;;;;;;;;;5006361;28;20025;-79
2021/10/08 10:41:45;;;;;;;1092.40;981.70;;;;;;;;;;5000228;28;20513;-79
2021/10/08 10:44:27;;;;;;;1091.93;981.20;;;;;;;;;;5008493;28;20088;-78
2021/10/08 10:47:18;;;;;;;1088.15;977.72;;;;;;;;;;5004248;28;20034;-78
2021/10/08 10:49:56;;;;;;;1086.70;976.03;;;;;;;;;;5007343;28;20025;-77
2021/10/08 10:52:24;;;;;;;1083.95;973.47;;;;;;;;;;5005284;28;20057;-79
2021/10/08 10:54:51;;;;;;;1076.95;966.88;;;;;;;;;;5002929;28;20034;-77
2021/10/08 10:57:29;;;;;;;1078.32;968.38;;;;;;;;;;5004306;28;20032;-78
2021/10/08 11:00:15;;;;;;;1089.15;978.42;;;;;;;;;;5004415;28;20026;-79
2021/10/08 11:02:41;;;;;;;1080.68;970.13;;;;;;;;;;5002492;28;20022;-78
2021/10/08 11:05:21;;;;;;;1081.70;971.60;;;;;;;;;;5004775;28;20390;-78
2021/10/08 11:08:05;;;;;;;1085.25;974.63;;;;;;;;;;5038254;28;20018;-79
2021/10/08 11:10:32;;;;;;;1076.15;965.63;;;;;;;;;;5006416;28;20030;-79
2021/10/08 11:13:17;;;;;;;1083.82;973.38;;;;;;;;;;5004348;28;20033;-78
2021/10/08 11:16:04;;;;;;;1093.72;982.63;;;;;;;;;;5006071;28;20393;-79
2021/10/08 11:18:45;;;;;;;1074.72;964.65;;;;;;;;;;5005558;28;20018;-78
2021/10/08 11:21:13;;;;;;;1083.40;972.78;;;;;;;;;;5005051;28;20026;-78
2021/10/08 11:23:40;;;;;;;1083.53;973.00;;;;;;;;;;5007999;28;20026;-79
2021/10/08 11:26:08;;;;;;;1101.43;990.13;;;;;;;;;;5007295;28;20092;-78
2021/10/08 11:28:36;;;;;;;1096.63;985.53;;;;;;;;;;5001690;28;20492;-77
2021/10/08 11:31:03;;;;;;;1109.88;996.75;;;;;;;;;;5004196;28;20014;-78
2021/10/08 11:33:36;;;;;;;1108.65;995.42;;;;;;;;;;4999042;28;20026;-79
2021/10/08 11:36:33;;;;;;;1108.75;995.33;;;;;;;;;;5002010;28;20367;-78
2021/10/08 11:39:10;;;;;;;1099.53;988.50;;;;;;;;;;4989230;28;20602;-77
2021/10/08 11:41:37;;;;;;;1099.07;987.75;;;;;;;;;;5022356;28;20485;-77
2021/10/08 11:44:06;;;;;;;1112.72;997.85;;;;;;;;;;5007377;28;20085;-79
2021/10/08 11:46:39;;;;;;;1101.93;990.38;;;;;;;;;;5007688;28;20038;-78
2021/10/08 11:49:26;;;;;;;1101.75;990.50;;;;;;;;;;5009059;28;20466;-76
2021/10/08 11:51:58;;;;;;;1098.45;987.20;;;;;;;;;;5007325;28;20033;-78
2021/10/08 11:54:25;;;;;;;1093.80;982.42;;;;;;;;;;5005246;28;20049;-78
2021/10/08 11:56:59;;;;;;;1098.80;987.45;;;;;;;;;;5008705;28;20052;-78
2021/10/08 11:59:25;;;;;;;1092.53;981.72;;;;;;;;;;5007660;28;20029;-78
2021/10/08 12:02:06;;;;;;;1100.03;988.50;;;;;;;;;;5013717;28;20030;-78
2021/10/08 12:04:32;;;;;;;1102.82;991.53;;;;;;;;;;5011646;28;20801;-77
2021/10/08 12:07:09;;;;;;;1103.15;992.03;;;;;;;;;;5012820;28;20065;-78
2021/10/08 12:09:35;;;;;;;1096.03;985.03;;;;;;;;;;5009558;28;20026;-76
2021/10/08 12:12:11;;;;;;;1097.03;986.10;;;;;;;;;;5008800;28;20486;-77
2021/10/08 12:14:47;;;;;;;1105.97;993.83;;;;;;;;;;5009434;28;20037;-79
2021/10/08 12:17:13;;;;;;;1103.95;992.92;;;;;;;;;;5006110;28;20050;-79
2021/10/08 12:19:42;;;;;;;1100.47;989.25;;;;;;;;;;5005264;28;20121;-77
2021/10/08 12:22:20;;;;;;;1109.43;996.63;;;;;;;;;;5008120;28;20418;-77
2021/10/08 12:24:46;;;;;;;1105.93;994.30;;;;;;;;;;5004793;28;20442;-79
2021/10/08 12:27:13;;;;;;;1107.75;995.60;;;;;;;;;;5007209;28;20069;-79
2021/10/08 12:29:43;;;;;;;1108.22;995.92;;;;;;;;;;5006970;28;20052;-78
2021/10/08 12:32:09;;;;;;;;;;;;;;;;;;5000393;28;20076;-78
2021/10/08 12:34:36;;;;;;;1085.63;974.92;;;;;;;;;;5008082;28;20378;-79
2021/10/08 12:37:04;;;;;;;1108.32;996.05;;;;;;;;;;5006652;28;20525;-79
2021/10/08 12:39:34;;;;;;;1109.93;996.97;;;;;;;;;;5011952;28;20428;-77
2021/10/08 12:42:02;;;;;;;;;;;;;;;;;;5019721;28;20029;-78
2021/10/08 12:44:34;;;;;;;1088.20;977.88;;;;;;;;;;5012573;28;19913;-77
2021/10/08 12:47:13;;;;;;;1108.75;996.50;;;;;;;;;;5010828;28;20022;-78
2021/10/08 12:49:49;;;;;;;1111.30;997.88;;;;;;;;;;5006649;28;20026;-76
2021/10/08 12:52:16;;;;;;;1104.18;993.33;;;;;;;;;;5015788;28;20038;-79
2021/10/08 12:54:43;;;;;;;1124.75;999.90;;;;;;;;;;5011973;28;20030;-79
2021/10/08 12:57:09;;;;;;;1113.45;998.38;;;;;;;;;;5010186;28;20018;-78
2021/10/08 12:59:45;;;;;;;1108.22;995.80;;;;;;;;;;5001373;28;20108;-78
2021/10/08 13:02:11;;;;;;;1111.35;997.17;;;;;;;;;;4998705;28;20033;-78
2021/10/08 13:04:40;;;;;;;1115.80;998.42;;;;;;;;;;5005639;28;20061;-78
2021/10/08 13:07:16;;;;;;;1115.18;998.83;;;;;;;;;;5007263;28;20037;-77
2021/10/08 13:10:01;;;;;;;1115.97;999.22;;;;;;;;;;5005732;28;20026;-76
2021/10/08 13:12:40;;;;;;;1103.88;992.50;;;;;;;;;;5005224;28;20072;-78
2021/10/08 13:15:13;;;;;;;1109.85;996.97;;;;;;;;;;5005718;28;20549;-78
2021/10/08 13:17:40;;;;;;;1114.93;999.10;;;;;;;;;;5005883;28;20026;-78
2021/10/08 13:20:08;;;;;;;1111.28;997.28;;;;;;;;;;5006006;28;20033;-79
2021/10/08 13:22:34;;;;;;;1119.07;999.88;;;;;;;;;;4999910;28;20014;-79
2021/10/08 13:25:00;;;;;;;1115.47;999.03;;;;;;;;;;5010304;28;20462;-78
2021/10/08 13:27:31;;;;;;;1115.05;998.85;;;;;;;;;;5010460;28;20037;-79
2021/10/08 13:29:57;;;;;;;1121.93;999.90;;;;;;;;;;5010067;28;20080;-80
2021/10/08 13:32:23;;;;;;;1123.47;999.90;;;;;;;;;;5004706;28;20026;-78
2021/10/08 13:34:49;;;;;;;1118.00;999.72;;;;;;;;;;5005784;28;20049;-78
2021/10/08 13:37:15;;;;;;;1132.60;999.90;;;;;;;;;;5004216;28;20393;-78
2021/10/08 13:39:42;;;;;;;1131.25;999.90;;;;;;;;;;5004545;28;20034;-76
2021/10/08 13:42:08;;;;;;;1122.35;999.90;;;;;;;;;;5003156;28;20026;-79
2021/10/08 13:44:37;;;;;;;1127.88;999.90;;;;;;;;;;5000164;28;20474;-79
2021/10/08 13:47:04;;;;;;;1120.93;999.90;;;;;;;;;;5012560;28;20026;-77
2021/10/08 13:49:30;;;;;;;1123.40;999.90;;;;;;;;;;5007210;28;20489;-77
2021/10/08 13:51:56;;;;;;;1126.20;999.90;;;;;;;;;;5000080;28;20030;-77
2021/10/08 13:54:22;;;;;;;1124.78;999.90;;;;;;;;;;5000786;28;20035;-78
2021/10/08 13:56:48;;;;;;;1127.88;999.90;;;;;;;;;;5014631;28;20037;-78